createdAt,value
2018-12-09T00:03:51.990Z,81.50
2018-12-09T00:08:59.112Z,86.20
2018-12-09T00:14:04.152Z,89.90
2018-12-09T00:19:09.012Z,92.30
2018-12-09T00:24:14.043Z,92.90
2018-12-09T00:29:18.896Z,93.70
2018-12-09T00:34:24.033Z,94.90
2018-12-09T00:39:28.996Z,94.90
2018-12-09T00:44:34.031Z,94.80
2018-12-09T00:49:38.969Z,95.20
2018-12-09T00:54:43.932Z,95.40
2018-12-09T00:59:48.903Z,95.40
2018-12-09T01:04:53.762Z,95.50
2018-12-09T01:09:58.700Z,95.50
2018-12-09T01:15:03.736Z,95.40
2018-12-09T01:20:09.003Z,95.00
2018-12-09T01:25:13.902Z,94.40
2018-12-09T01:30:18.739Z,94.80
2018-12-09T01:35:23.615Z,95.40
2018-12-09T01:40:31.089Z,94.70
2018-12-09T01:45:35.960Z,95.10
2018-12-09T01:50:41.030Z,94.90
2018-12-09T01:55:47.281Z,94.70
2018-12-09T02:00:52.157Z,94.00
2018-12-09T02:05:57.097Z,94.60
2018-12-09T02:11:02.013Z,94.30
2018-12-09T02:16:06.965Z,94.50
2018-12-09T02:21:11.836Z,93.50
2018-12-09T02:26:16.772Z,94.00
2018-12-09T02:31:22.338Z,93.40
2018-12-09T02:36:27.597Z,93.40
2018-12-09T02:41:32.642Z,91.80
2018-12-09T02:46:37.508Z,91.80
2018-12-09T02:51:42.453Z,91.40
2018-12-09T02:56:47.354Z,91.50
2018-12-09T03:01:52.490Z,90.20
2018-12-09T03:06:57.466Z,90.80
2018-12-09T03:12:02.456Z,90.80
2018-12-09T03:17:08.330Z,91.40
2018-12-09T03:22:13.145Z,90.90
2018-12-09T03:27:18.013Z,91.00
2018-12-09T03:32:22.955Z,91.40
2018-12-09T03:37:27.780Z,91.60
2018-12-09T03:42:32.830Z,91.60
2018-12-09T03:47:37.824Z,91.30
2018-12-09T03:52:42.827Z,90.70
2018-12-09T03:57:47.820Z,90.60
2018-12-09T04:02:53.149Z,90.30
2018-12-09T04:07:58.091Z,90.40
2018-12-09T04:13:03.139Z,89.50
2018-12-09T04:18:08.128Z,87.70
2018-12-09T04:23:13.045Z,90.40
2018-12-09T04:28:18.056Z,90.00
2018-12-09T04:33:23.139Z,88.80
2018-12-09T04:38:27.975Z,89.20
2018-12-09T04:43:32.896Z,90.20
2018-12-09T04:48:37.885Z,90.80
2018-12-09T04:53:42.729Z,91.60
2018-12-09T04:59:27.047Z,90.90
2018-12-09T05:04:31.988Z,90.40
2018-12-09T05:09:36.996Z,90.70
2018-12-09T05:14:41.830Z,90.10
2018-12-09T05:19:46.752Z,89.90
2018-12-09T05:24:51.836Z,89.20
2018-12-09T05:29:56.791Z,89.20
2018-12-09T05:35:01.773Z,88.90
2018-12-09T05:40:08.847Z,90.20
2018-12-09T05:45:13.656Z,90.30
2018-12-09T05:50:19.034Z,90.20
2018-12-09T05:55:24.065Z,90.90
2018-12-09T06:00:29.053Z,91.50
2018-12-09T06:05:33.878Z,92.40
2018-12-09T06:10:38.753Z,92.30
2018-12-09T06:15:43.686Z,92.90
2018-12-09T06:20:48.813Z,92.10
2018-12-09T06:25:53.672Z,92.10
2018-12-09T06:30:58.613Z,91.70
2018-12-09T06:36:03.646Z,92.90
2018-12-09T06:41:08.721Z,93.30
2018-12-09T06:46:13.552Z,93.80
2018-12-09T06:51:18.511Z,93.50
2018-12-09T06:56:23.764Z,93.50
2018-12-09T07:01:30.712Z,93.30
2018-12-09T07:06:35.735Z,92.70
2018-12-09T07:11:40.550Z,92.50
2018-12-09T07:16:45.789Z,91.60
2018-12-09T07:21:50.765Z,92.90
2018-12-09T07:26:56.080Z,92.10
2018-12-09T07:32:01.155Z,92.40
2018-12-09T07:37:06.198Z,91.70
2018-12-09T07:42:12.236Z,91.70
2018-12-09T07:47:18.205Z,92.20
2018-12-09T07:52:23.212Z,90.60
2018-12-09T07:57:28.201Z,90.00
2018-12-09T08:02:32.917Z,90.90
2018-12-09T08:07:37.928Z,90.20
2018-12-09T08:12:42.902Z,90.10
2018-12-09T08:17:57.405Z,91.30
2018-12-09T08:23:09.670Z,91.80
2018-12-09T08:28:17.352Z,91.20
2018-12-09T08:33:22.310Z,91.00
2018-12-09T08:38:27.188Z,91.20
2018-12-09T08:43:32.345Z,91.80
2018-12-09T08:48:37.388Z,91.80
2018-12-09T08:53:42.232Z,92.40
2018-12-09T08:58:47.342Z,92.10
2018-12-09T09:03:52.330Z,92.70
2018-12-09T09:08:57.283Z,93.10
2018-12-09T09:14:02.327Z,92.40
2018-12-09T09:19:07.419Z,91.70
2018-12-09T09:24:12.778Z,91.50
2018-12-09T09:29:18.230Z,91.60
2018-12-09T09:34:23.347Z,92.70
2018-12-09T09:39:28.516Z,92.70
2018-12-09T09:44:33.449Z,92.00
2018-12-09T09:49:38.491Z,92.30
2018-12-09T09:54:43.390Z,90.40
2018-12-09T09:59:48.416Z,91.30
2018-12-09T10:04:53.217Z,92.40
2018-12-09T10:09:58.058Z,91.20
2018-12-09T10:15:03.641Z,90.10
2018-12-09T10:20:08.817Z,90.10
2018-12-09T10:25:13.766Z,91.20
2018-12-09T10:30:18.804Z,88.30
2018-12-09T10:35:23.633Z,89.40
2018-12-09T10:40:28.473Z,87.50
2018-12-09T10:45:33.431Z,87.30
2018-12-09T10:50:38.255Z,87.70
2018-12-09T10:55:43.249Z,87.70
2018-12-09T11:00:52.220Z,86.80
2018-12-09T11:05:57.014Z,85.20
2018-12-09T11:11:01.932Z,84.50
2018-12-09T11:16:06.811Z,84.30
2018-12-09T11:21:11.778Z,82.60
2018-12-09T11:26:16.908Z,85.60
2018-12-09T11:31:22.067Z,85.50
2018-12-09T11:36:27.010Z,85.40
2018-12-09T11:41:32.550Z,86.20
2018-12-09T11:46:37.639Z,86.30
2018-12-09T11:51:42.603Z,84.90
2018-12-09T11:56:47.640Z,85.60
2018-12-09T12:01:52.466Z,86.20
2018-12-09T12:06:57.426Z,86.80
2018-12-09T12:12:02.482Z,86.00
2018-12-09T12:17:07.561Z,86.30
2018-12-09T12:22:12.657Z,88.10
2018-12-09T12:27:17.640Z,87.60
2018-12-09T12:32:22.763Z,88.40
2018-12-09T12:37:28.315Z,88.50
2018-12-09T12:42:33.382Z,88.70
2018-12-09T12:47:38.222Z,89.20
2018-12-09T12:52:43.161Z,90.40
2018-12-09T12:57:48.863Z,90.10
2018-12-09T13:02:55.597Z,90.80
2018-12-09T13:08:06.129Z,90.60
2018-12-09T13:13:12.138Z,90.20
2018-12-09T13:18:18.186Z,90.20
2018-12-09T13:23:23.640Z,89.90
2018-12-09T13:28:29.624Z,90.50
2018-12-09T13:33:34.954Z,90.00
2018-12-09T13:38:40.679Z,89.50
2018-12-09T13:43:46.042Z,88.60
2018-12-09T13:48:57.809Z,86.60
2018-12-09T13:54:04.040Z,87.70
2018-12-09T13:59:12.006Z,87.60
2018-12-09T14:04:17.235Z,88.20
2018-12-09T14:09:26.812Z,87.60
2018-12-09T14:14:31.736Z,87.40
2018-12-09T14:19:36.881Z,86.60
2018-12-09T14:24:42.043Z,86.90
2018-12-09T14:29:46.947Z,86.30
2018-12-09T14:34:51.712Z,87.70
2018-12-09T14:39:56.672Z,87.20
2018-12-09T14:45:01.616Z,88.10
2018-12-09T14:50:08.553Z,88.70
2018-12-09T14:55:13.638Z,88.50
2018-12-09T15:00:18.527Z,88.50
2018-12-09T15:05:23.560Z,88.50
2018-12-09T15:10:28.607Z,88.30
2018-12-09T15:15:33.446Z,89.30
2018-12-09T15:20:38.501Z,90.00
2018-12-09T15:25:44.723Z,90.30
2018-12-09T15:30:49.830Z,90.90
2018-12-09T15:35:56.928Z,90.70
2018-12-09T15:41:02.078Z,90.80
2018-12-09T15:46:07.012Z,90.70
2018-12-09T15:51:12.327Z,90.60
2018-12-09T15:56:17.312Z,90.30
2018-12-09T16:01:22.579Z,90.10
2018-12-09T16:06:27.457Z,90.40
2018-12-09T16:11:32.402Z,89.20
2018-12-09T16:16:37.359Z,88.80
2018-12-09T16:21:42.973Z,89.50
2018-12-09T16:26:47.839Z,89.00
2018-12-09T16:31:54.965Z,89.70
2018-12-09T16:37:07.594Z,88.70
2018-12-09T16:42:12.767Z,88.00
2018-12-09T16:47:17.573Z,88.00
2018-12-09T16:52:22.540Z,87.80
2018-12-09T16:57:28.211Z,87.40
2018-12-09T17:02:35.399Z,87.80
2018-12-09T17:07:42.551Z,88.70
2018-12-09T17:12:48.784Z,88.20
2018-12-09T17:17:53.895Z,87.70
2018-12-09T17:23:00.211Z,87.40
2018-12-09T17:28:07.683Z,87.70
2018-12-09T17:33:12.780Z,87.30
2018-12-09T17:38:17.835Z,87.70
2018-12-09T17:43:22.629Z,86.80
2018-12-09T17:48:27.582Z,86.90
2018-12-09T17:53:32.746Z,86.30
2018-12-09T17:58:38.778Z,86.80
2018-12-09T18:03:43.965Z,86.60
2018-12-09T18:08:49.158Z,86.30
2018-12-09T18:13:54.201Z,86.30
2018-12-09T18:18:59.039Z,86.70
2018-12-09T18:24:03.942Z,86.60
2018-12-09T18:29:08.935Z,87.10
2018-12-09T18:34:13.942Z,87.70
2018-12-09T18:39:18.933Z,87.30
2018-12-09T18:44:23.864Z,86.80
2018-12-09T18:49:28.729Z,87.60
2018-12-09T18:54:33.720Z,87.70
2018-12-09T18:59:40.152Z,87.60
2018-12-09T19:04:45.366Z,87.20
2018-12-09T19:09:51.859Z,87.70
2018-12-09T19:14:56.714Z,88.90
2018-12-09T19:20:01.294Z,90.10
2018-12-09T19:25:07.005Z,90.70
2018-12-09T19:30:11.570Z,90.90
2018-12-09T19:35:16.120Z,90.50
2018-12-09T19:40:20.645Z,90.30
2018-12-09T19:45:25.585Z,90.40
2018-12-09T19:50:30.746Z,89.90
2018-12-09T19:55:35.673Z,89.00
2018-12-09T20:00:40.526Z,89.50
2018-12-09T20:05:45.557Z,89.20
2018-12-09T20:10:50.434Z,89.80
2018-12-09T20:15:55.500Z,90.20
2018-12-09T20:21:00.070Z,90.20
2018-12-09T20:26:04.723Z,90.10
2018-12-09T20:31:09.259Z,90.00
2018-12-09T20:36:13.847Z,89.20
2018-12-09T20:41:18.423Z,89.50
2018-12-09T20:46:23.070Z,90.00
2018-12-09T20:51:27.597Z,89.20
2018-12-09T20:56:32.133Z,88.90
2018-12-09T21:01:36.859Z,87.20
2018-12-09T21:06:41.462Z,87.50
2018-12-09T21:11:46.966Z,86.50
2018-12-09T21:16:51.576Z,86.90
2018-12-09T21:21:56.102Z,86.10
2018-12-09T21:27:00.668Z,85.00
2018-12-09T21:32:05.659Z,84.40
2018-12-09T21:37:10.574Z,83.80
2018-12-09T21:42:15.402Z,83.20
2018-12-09T21:47:20.251Z,83.10
2018-12-09T21:52:25.280Z,82.80
2018-12-09T21:57:30.254Z,83.00
2018-12-09T22:02:35.156Z,81.70
2018-12-09T22:07:40.013Z,82.20
2018-12-09T22:12:45.065Z,83.10
2018-12-09T22:17:50.015Z,82.70
2018-12-09T22:22:54.994Z,83.40
2018-12-09T22:28:00.039Z,85.80
2018-12-09T22:33:04.954Z,88.00
2018-12-09T22:38:09.714Z,88.70
2018-12-09T22:43:14.759Z,86.80
2018-12-09T22:48:19.577Z,86.60
2018-12-09T22:53:24.459Z,86.60
2018-12-09T22:58:29.486Z,86.70
2018-12-09T23:03:34.436Z,87.90
2018-12-09T23:08:39.505Z,87.90
2018-12-09T23:13:44.119Z,88.00
2018-12-09T23:18:48.656Z,87.90
2018-12-09T23:23:53.189Z,87.60
2018-12-09T23:28:57.745Z,85.60
2018-12-09T23:34:02.295Z,84.00
2018-12-09T23:39:07.030Z,85.10
2018-12-09T23:44:12.719Z,85.70
2018-12-09T23:49:17.280Z,85.00
2018-12-09T23:54:21.816Z,84.00
2018-12-09T23:59:26.419Z,84.00
